sensor_id;sensor_type;location;lat;lon;timestamp;temperature;humidity
65040;HTU21D;51606;45.000;38.612;2024-03-17T04:09:14;5.07;71.19
65040;HTU21D;51606;45.000;38.612;2024-03-17T04:11:40;5.25;71.03
65040;HTU21D;51606;45.000;38.612;2024-03-17T04:14:07;5.46;70.82
65040;HTU21D;51606;45.000;38.612;2024-03-17T04:16:33;5.62;70.65
65040;HTU21D;51606;45.000;38.612;2024-03-17T04:19:00;5.79;70.52
65040;HTU21D;51606;45.000;38.612;2024-03-17T04:21:26;5.94;70.44
65040;HTU21D;51606;45.000;38.612;2024-03-17T04:23:53;6.09;70.38
65040;HTU21D;51606;45.000;38.612;2024-03-17T04:26:19;6.22;70.31
65040;HTU21D;51606;45.000;38.612;2024-03-17T04:28:45;6.35;70.25
65040;HTU21D;51606;45.000;38.612;2024-03-17T04:31:12;6.48;70.21
65040;HTU21D;51606;45.000;38.612;2024-03-17T04:33:38;6.60;70.16
65040;HTU21D;51606;45.000;38.612;2024-03-17T04:36:05;6.72;70.14
65040;HTU21D;51606;45.000;38.612;2024-03-17T04:38:32;6.85;70.12
65040;HTU21D;51606;45.000;38.612;2024-03-17T04:40:58;6.94;70.13
65040;HTU21D;51606;45.000;38.612;2024-03-17T04:43:31;7.04;70.13
65040;HTU21D;51606;45.000;38.612;2024-03-17T04:46:03;7.15;70.14
65040;HTU21D;51606;45.000;38.612;2024-03-17T04:48:31;7.24;70.13
65040;HTU21D;51606;45.000;38.612;2024-03-17T04:50:59;7.34;70.16
65040;HTU21D;51606;45.000;38.612;2024-03-17T04:53:27;7.41;70.19
65040;HTU21D;51606;45.000;38.612;2024-03-17T04:58:27;7.58;70.22
65040;HTU21D;51606;45.000;38.612;2024-03-17T05:00:53;7.64;70.24
65040;HTU21D;51606;45.000;38.612;2024-03-17T05:03:19;7.70;70.28
65040;HTU21D;51606;45.000;38.612;2024-03-17T05:05:46;7.77;70.32
65040;HTU21D;51606;45.000;38.612;2024-03-17T05:08:12;7.82;70.37
65040;HTU21D;51606;45.000;38.612;2024-03-17T05:10:39;7.86;70.42
65040;HTU21D;51606;45.000;38.612;2024-03-17T05:13:05;7.90;70.49
65040;HTU21D;51606;45.000;38.612;2024-03-17T05:15:32;7.96;70.54
65040;HTU21D;51606;45.000;38.612;2024-03-17T05:17:58;8.05;70.57
65040;HTU21D;51606;45.000;38.612;2024-03-17T05:20:24;8.14;70.56
65040;HTU21D;51606;45.000;38.612;2024-03-17T05:22:51;8.28;70.51
65040;HTU21D;51606;45.000;38.612;2024-03-17T05:25:17;8.56;70.58
65040;HTU21D;51606;45.000;38.612;2024-03-17T05:27:43;8.93;69.92
65040;HTU21D;51606;45.000;38.612;2024-03-17T05:30:11;9.07;69.71
65040;HTU21D;51606;45.000;38.612;2024-03-17T05:32:38;9.15;69.73
65040;HTU21D;51606;45.000;38.612;2024-03-17T05:35:04;9.20;69.81
65040;HTU21D;51606;45.000;38.612;2024-03-17T05:37:31;9.25;69.88
65040;HTU21D;51606;45.000;38.612;2024-03-17T05:39:57;9.31;69.94
65040;HTU21D;51606;45.000;38.612;2024-03-17T05:42:24;9.38;69.96
65040;HTU21D;51606;45.000;38.612;2024-03-17T05:44:50;9.41;70.00
65040;HTU21D;51606;45.000;38.612;2024-03-17T05:47:17;9.45;70.05
65040;HTU21D;51606;45.000;38.612;2024-03-17T05:49:44;9.46;70.12
65040;HTU21D;51606;45.000;38.612;2024-03-17T05:52:12;9.49;70.18
65040;HTU21D;51606;45.000;38.612;2024-03-17T05:54:39;9.54;70.24
65040;HTU21D;51606;45.000;38.612;2024-03-17T05:57:05;9.63;70.23
65040;HTU21D;51606;45.000;38.612;2024-03-17T05:59:33;9.75;70.16
65040;HTU21D;51606;45.000;38.612;2024-03-17T06:01:59;9.90;70.12
65040;HTU21D;51606;45.000;38.612;2024-03-17T06:04:26;10.16;70.03
65040;HTU21D;51606;45.000;38.612;2024-03-17T06:06:53;10.54;69.45
65040;HTU21D;51606;45.000;38.612;2024-03-17T06:09:20;10.75;69.26
65040;HTU21D;51606;45.000;38.612;2024-03-17T06:11:46;10.84;69.20
65040;HTU21D;51606;45.000;38.612;2024-03-17T06:14:13;10.90;69.26
65040;HTU21D;51606;45.000;38.612;2024-03-17T06:16:39;10.99;69.31
65040;HTU21D;51606;45.000;38.612;2024-03-17T06:19:06;11.05;69.35
65040;HTU21D;51606;45.000;38.612;2024-03-17T06:21:33;11.16;69.37
65040;HTU21D;51606;45.000;38.612;2024-03-17T06:23:59;11.32;69.39
65040;HTU21D;51606;45.000;38.612;2024-03-17T06:26:26;11.53;69.12
65040;HTU21D;51606;45.000;38.612;2024-03-17T06:28:53;11.59;69.09
65040;HTU21D;51606;45.000;38.612;2024-03-17T06:31:19;11.61;69.15
65040;HTU21D;51606;45.000;38.612;2024-03-17T06:33:46;11.62;69.23
65040;HTU21D;51606;45.000;38.612;2024-03-17T06:36:13;11.66;69.27
65040;HTU21D;51606;45.000;38.612;2024-03-17T06:38:39;11.71;69.29
65040;HTU21D;51606;45.000;38.612;2024-03-17T06:41:07;11.74;69.30
65040;HTU21D;51606;45.000;38.612;2024-03-17T06:43:35;11.87;69.23
65040;HTU21D;51606;45.000;38.612;2024-03-17T06:46:02;11.91;69.18
65040;HTU21D;51606;45.000;38.612;2024-03-17T06:48:28;12.01;69.15
65040;HTU21D;51606;45.000;38.612;2024-03-17T06:50:55;12.16;69.01
65040;HTU21D;51606;45.000;38.612;2024-03-17T06:53:22;12.23;68.83
65040;HTU21D;51606;45.000;38.612;2024-03-17T06:55:55;12.22;68.82
65040;HTU21D;51606;45.000;38.612;2024-03-17T06:58:23;12.23;68.88
65040;HTU21D;51606;45.000;38.612;2024-03-17T07:01:08;12.23;68.88
65040;HTU21D;51606;45.000;38.612;2024-03-17T07:03:34;12.20;68.96
65040;HTU21D;51606;45.000;38.612;2024-03-17T07:06:02;12.22;69.03
65040;HTU21D;51606;45.000;38.612;2024-03-17T07:08:30;12.28;69.02
65040;HTU21D;51606;45.000;38.612;2024-03-17T07:10:57;12.36;69.02
65040;HTU21D;51606;45.000;38.612;2024-03-17T07:13:24;12.44;68.89
65040;HTU21D;51606;45.000;38.612;2024-03-17T07:15:51;12.50;68.87
65040;HTU21D;51606;45.000;38.612;2024-03-17T07:18:17;12.50;68.85
65040;HTU21D;51606;45.000;38.612;2024-03-17T07:20:43;12.55;68.87
65040;HTU21D;51606;45.000;38.612;2024-03-17T07:23:11;12.69;68.77
65040;HTU21D;51606;45.000;38.612;2024-03-17T07:25:38;12.84;68.59
65040;HTU21D;51606;45.000;38.612;2024-03-17T07:28:04;13.01;68.37
65040;HTU21D;51606;45.000;38.612;2024-03-17T07:30:31;13.17;68.26
65040;HTU21D;51606;45.000;38.612;2024-03-17T07:32:57;13.33;68.11
65040;HTU21D;51606;45.000;38.612;2024-03-17T07:35:24;13.49;67.95
65040;HTU21D;51606;45.000;38.612;2024-03-17T07:38:31;13.75;67.77
65040;HTU21D;51606;45.000;38.612;2024-03-17T07:41:04;14.44;67.74
65040;HTU21D;51606;45.000;38.612;2024-03-17T07:43:32;15.65;67.06
65040;HTU21D;51606;45.000;38.612;2024-03-17T07:46:10;16.67;66.14
65040;HTU21D;51606;45.000;38.612;2024-03-17T07:48:41;17.15;65.87
65040;HTU21D;51606;45.000;38.612;2024-03-17T07:51:10;17.37;65.89
65040;HTU21D;51606;45.000;38.612;2024-03-17T07:53:41;17.54;65.88
65040;HTU21D;51606;45.000;38.612;2024-03-17T07:56:09;17.61;65.86
65040;HTU21D;51606;45.000;38.612;2024-03-17T07:58:38;17.63;65.89
65040;HTU21D;51606;45.000;38.612;2024-03-17T08:01:06;17.68;65.76
65040;HTU21D;51606;45.000;38.612;2024-03-17T08:03:34;17.83;65.77
65040;HTU21D;51606;45.000;38.612;2024-03-17T08:06:08;18.00;65.39
65040;HTU21D;51606;45.000;38.612;2024-03-17T08:08:35;18.08;65.49
65040;HTU21D;51606;45.000;38.612;2024-03-17T08:11:01;18.54;65.27
65040;HTU21D;51606;45.000;38.612;2024-03-17T08:13:31;19.06;64.72
65040;HTU21D;51606;45.000;38.612;2024-03-17T08:16:07;19.37;64.12
65040;HTU21D;51606;45.000;38.612;2024-03-17T08:18:37;19.39;64.01
65040;HTU21D;51606;45.000;38.612;2024-03-17T08:21:04;19.07;64.14
65040;HTU21D;51606;45.000;38.612;2024-03-17T08:23:33;18.79;64.56
65040;HTU21D;51606;45.000;38.612;2024-03-17T08:26:02;18.82;64.66
65040;HTU21D;51606;45.000;38.612;2024-03-17T08:28:28;19.17;64.20
65040;HTU21D;51606;45.000;38.612;2024-03-17T08:30:59;19.27;63.64
65040;HTU21D;51606;45.000;38.612;2024-03-17T08:33:27;19.22;63.55
65040;HTU21D;51606;45.000;38.612;2024-03-17T08:35:54;19.39;63.56
65040;HTU21D;51606;45.000;38.612;2024-03-17T08:38:22;20.15;63.08
65040;HTU21D;51606;45.000;38.612;2024-03-17T08:40:52;20.37;62.43
65040;HTU21D;51606;45.000;38.612;2024-03-17T08:43:20;20.24;62.53
65040;HTU21D;51606;45.000;38.612;2024-03-17T08:46:04;20.04;62.54
65040;HTU21D;51606;45.000;38.612;2024-03-17T08:48:32;19.77;62.89
65040;HTU21D;51606;45.000;38.612;2024-03-17T08:51:00;19.52;63.08
65040;HTU21D;51606;45.000;38.612;2024-03-17T08:53:28;19.16;63.15
65040;HTU21D;51606;45.000;38.612;2024-03-17T08:55:55;18.69;63.46
65040;HTU21D;51606;45.000;38.612;2024-03-17T08:58:22;18.20;63.76
65040;HTU21D;51606;45.000;38.612;2024-03-17T09:00:49;17.74;64.10
65040;HTU21D;51606;45.000;38.612;2024-03-17T09:03:15;17.47;64.30
65040;HTU21D;51606;45.000;38.612;2024-03-17T09:05:44;17.37;64.07
65040;HTU21D;51606;45.000;38.612;2024-03-17T09:08:21;17.23;63.82
65040;HTU21D;51606;45.000;38.612;2024-03-17T09:10:50;17.19;64.34
65040;HTU21D;51606;45.000;38.612;2024-03-17T09:13:24;18.38;63.68
65040;HTU21D;51606;45.000;38.612;2024-03-17T09:15:53;19.40;62.60
65040;HTU21D;51606;45.000;38.612;2024-03-17T09:18:20;19.81;62.12
65040;HTU21D;51606;45.000;38.612;2024-03-17T09:21:04;20.56;61.86
65040;HTU21D;51606;45.000;38.612;2024-03-17T09:23:32;21.45;62.12
65040;HTU21D;51606;45.000;38.612;2024-03-17T09:26:05;22.44;61.12
65040;HTU21D;51606;45.000;38.612;2024-03-17T09:28:32;22.90;60.99
65040;HTU21D;51606;45.000;38.612;2024-03-17T09:30:59;23.16;60.84
65040;HTU21D;51606;45.000;38.612;2024-03-17T09:33:28;23.06;61.13
65040;HTU21D;51606;45.000;38.612;2024-03-17T09:36:02;22.96;61.75
65040;HTU21D;51606;45.000;38.612;2024-03-17T09:38:29;22.98;61.76
65040;HTU21D;51606;45.000;38.612;2024-03-17T09:40:56;22.55;61.83
65040;HTU21D;51606;45.000;38.612;2024-03-17T09:43:33;22.19;62.10
65040;HTU21D;51606;45.000;38.612;2024-03-17T09:46:05;21.93;61.47
65040;HTU21D;51606;45.000;38.612;2024-03-17T09:48:32;21.57;61.48
65040;HTU21D;51606;45.000;38.612;2024-03-17T09:51:00;21.30;61.22
65040;HTU21D;51606;45.000;38.612;2024-03-17T09:53:34;21.31;61.01
65040;HTU21D;51606;45.000;38.612;2024-03-17T09:56:20;21.49;59.75
65040;HTU21D;51606;45.000;38.612;2024-03-17T09:58:51;21.47;59.32
65040;HTU21D;51606;45.000;38.612;2024-03-17T10:01:18;21.43;58.86
65040;HTU21D;51606;45.000;38.612;2024-03-17T10:03:46;21.31;58.58
65040;HTU21D;51606;45.000;38.612;2024-03-17T10:06:23;21.04;58.49
65040;HTU21D;51606;45.000;38.612;2024-03-17T10:08:52;20.72;58.67
65040;HTU21D;51606;45.000;38.612;2024-03-17T10:11:21;20.36;58.90
65040;HTU21D;51606;45.000;38.612;2024-03-17T10:14:05;20.37;58.77
65040;HTU21D;51606;45.000;38.612;2024-03-17T10:16:35;20.51;58.42
65040;HTU21D;51606;45.000;38.612;2024-03-17T10:21:38;20.73;57.76
65040;HTU21D;51606;45.000;38.612;2024-03-17T10:24:21;20.77;57.39
65040;HTU21D;51606;45.000;38.612;2024-03-17T10:29:30;20.31;57.52
65040;HTU21D;51606;45.000;38.612;2024-03-17T10:32:13;20.12;57.76
65040;HTU21D;51606;45.000;38.612;2024-03-17T10:34:40;20.12;57.77
65040;HTU21D;51606;45.000;38.612;2024-03-17T10:37:20;20.27;57.38
65040;HTU21D;51606;45.000;38.612;2024-03-17T10:39:52;20.36;57.26
65040;HTU21D;51606;45.000;38.612;2024-03-17T10:42:27;20.36;57.03
65040;HTU21D;51606;45.000;38.612;2024-03-17T10:45:07;20.34;57.01
65040;HTU21D;51606;45.000;38.612;2024-03-17T10:47:35;20.30;57.13
65040;HTU21D;51606;45.000;38.612;2024-03-17T10:50:02;20.27;57.07
65040;HTU21D;51606;45.000;38.612;2024-03-17T10:52:33;20.20;57.03
65040;HTU21D;51606;45.000;38.612;2024-03-17T10:55:07;20.07;57.13
65040;HTU21D;51606;45.000;38.612;2024-03-17T11:00:07;20.02;57.06
65040;HTU21D;51606;45.000;38.612;2024-03-17T11:02:35;19.98;57.06
65040;HTU21D;51606;45.000;38.612;2024-03-17T11:05:04;19.89;57.06
65040;HTU21D;51606;45.000;38.612;2024-03-17T11:07:33;19.77;57.10
65040;HTU21D;51606;45.000;38.612;2024-03-17T11:10:05;19.68;57.08
65040;HTU21D;51606;45.000;38.612;2024-03-17T11:12:54;19.52;57.22
65040;HTU21D;51606;45.000;38.612;2024-03-17T11:17:53;19.41;57.22
65040;HTU21D;51606;45.000;38.612;2024-03-17T11:20:27;19.62;56.79
65040;HTU21D;51606;45.000;38.612;2024-03-17T11:22:58;19.82;56.46
65040;HTU21D;51606;45.000;38.612;2024-03-17T11:27:58;19.75;56.41
65040;HTU21D;51606;45.000;38.612;2024-03-17T11:30:49;19.77;56.31
65040;HTU21D;51606;45.000;38.612;2024-03-17T11:38:57;19.52;56.37
65040;HTU21D;51606;45.000;38.612;2024-03-17T11:46:45;19.51;56.24
65040;HTU21D;51606;45.000;38.612;2024-03-17T11:49:27;19.55;56.10
65040;HTU21D;51606;45.000;38.612;2024-03-17T11:51:55;19.59;56.04
65040;HTU21D;51606;45.000;38.612;2024-03-17T11:54:24;19.55;55.94
65040;HTU21D;51606;45.000;38.612;2024-03-17T11:56:54;19.59;55.89
65040;HTU21D;51606;45.000;38.612;2024-03-17T11:59:22;19.73;55.67
65040;HTU21D;51606;45.000;38.612;2024-03-17T12:01:49;19.84;55.42
65040;HTU21D;51606;45.000;38.612;2024-03-17T12:04:21;19.91;55.20
65040;HTU21D;51606;45.000;38.612;2024-03-17T12:06:52;20.01;55.08
65040;HTU21D;51606;45.000;38.612;2024-03-17T12:09:25;20.02;55.02
65040;HTU21D;51606;45.000;38.612;2024-03-17T12:12:05;20.05;55.00
65040;HTU21D;51606;45.000;38.612;2024-03-17T12:14:36;20.01;55.08
65040;HTU21D;51606;45.000;38.612;2024-03-17T12:17:06;19.91;55.13
65040;HTU21D;51606;45.000;38.612;2024-03-17T12:19:34;19.85;55.22
65040;HTU21D;51606;45.000;38.612;2024-03-17T12:22:02;19.76;55.33
65040;HTU21D;51606;45.000;38.612;2024-03-17T12:24:30;19.62;55.45
65040;HTU21D;51606;45.000;38.612;2024-03-17T12:26:58;19.47;55.57
65040;HTU21D;51606;45.000;38.612;2024-03-17T12:29:36;19.31;55.71
65040;HTU21D;51606;45.000;38.612;2024-03-17T12:34:38;18.85;56.16
65040;HTU21D;51606;45.000;38.612;2024-03-17T12:37:05;18.66;56.36
65040;HTU21D;51606;45.000;38.612;2024-03-17T12:39:33;18.51;56.49
65040;HTU21D;51606;45.000;38.612;2024-03-17T12:44:34;18.23;56.72
65040;HTU21D;51606;45.000;38.612;2024-03-17T12:47:04;18.10;56.78
65040;HTU21D;51606;45.000;38.612;2024-03-17T12:49:33;18.06;56.84
65040;HTU21D;51606;45.000;38.612;2024-03-17T12:52:03;18.08;56.73
65040;HTU21D;51606;45.000;38.612;2024-03-17T12:54:29;18.09;56.62
65040;HTU21D;51606;45.000;38.612;2024-03-17T12:57:08;18.10;56.49
65040;HTU21D;51606;45.000;38.612;2024-03-17T12:59:53;18.18;56.46
65040;HTU21D;51606;45.000;38.612;2024-03-17T13:02:41;18.27;56.24
65040;HTU21D;51606;45.000;38.612;2024-03-17T13:05:15;18.28;56.08
65040;HTU21D;51606;45.000;38.612;2024-03-17T13:07:43;18.18;56.16
65040;HTU21D;51606;45.000;38.612;2024-03-17T13:10:13;18.05;56.33
65040;HTU21D;51606;45.000;38.612;2024-03-17T13:12:41;17.94;56.42
65040;HTU21D;51606;45.000;38.612;2024-03-17T13:15:16;17.83;56.48
65040;HTU21D;51606;45.000;38.612;2024-03-17T13:17:43;17.62;56.73
65040;HTU21D;51606;45.000;38.612;2024-03-17T13:20:16;17.41;56.92
65040;HTU21D;51606;45.000;38.612;2024-03-17T13:22:43;17.21;57.16
65040;HTU21D;51606;45.000;38.612;2024-03-17T13:25:14;17.05;57.29
65040;HTU21D;51606;45.000;38.612;2024-03-17T13:27:41;16.85;57.46
65040;HTU21D;51606;45.000;38.612;2024-03-17T13:30:08;16.63;57.74
65040;HTU21D;51606;45.000;38.612;2024-03-17T13:32:37;16.39;57.96
65040;HTU21D;51606;45.000;38.612;2024-03-17T13:35:06;16.15;58.22
65040;HTU21D;51606;45.000;38.612;2024-03-17T13:37:34;15.93;58.41
65040;HTU21D;51606;45.000;38.612;2024-03-17T13:40:04;15.81;58.54
65040;HTU21D;51606;45.000;38.612;2024-03-17T13:42:31;15.67;58.64
65040;HTU21D;51606;45.000;38.612;2024-03-17T13:44:58;15.54;58.70
65040;HTU21D;51606;45.000;38.612;2024-03-17T13:47:25;15.43;58.79
65040;HTU21D;51606;45.000;38.612;2024-03-17T13:49:52;15.29;58.89
65040;HTU21D;51606;45.000;38.612;2024-03-17T13:52:18;15.15;59.02
65040;HTU21D;51606;45.000;38.612;2024-03-17T13:54:45;15.03;59.12
65040;HTU21D;51606;45.000;38.612;2024-03-17T13:57:11;14.86;59.26
65040;HTU21D;51606;45.000;38.612;2024-03-17T13:59:38;14.72;59.41
65040;HTU21D;51606;45.000;38.612;2024-03-17T14:02:11;14.62;59.50
65040;HTU21D;51606;45.000;38.612;2024-03-17T14:04:38;14.52;59.54
65040;HTU21D;51606;45.000;38.612;2024-03-17T14:07:04;14.44;59.61
65040;HTU21D;51606;45.000;38.612;2024-03-17T14:09:31;14.35;59.64
65040;HTU21D;51606;45.000;38.612;2024-03-17T14:11:58;14.27;59.69
65040;HTU21D;51606;45.000;38.612;2024-03-17T14:14:24;14.18;59.75
65040;HTU21D;51606;45.000;38.612;2024-03-17T14:16:50;14.08;59.83
65040;HTU21D;51606;45.000;38.612;2024-03-17T14:19:16;13.94;60.02
65040;HTU21D;51606;45.000;38.612;2024-03-17T14:21:43;13.83;60.14
65040;HTU21D;51606;45.000;38.612;2024-03-17T14:24:09;13.75;60.26
65040;HTU21D;51606;45.000;38.612;2024-03-17T14:26:36;13.68;60.34
65040;HTU21D;51606;45.000;38.612;2024-03-17T14:29:02;13.62;60.39
65040;HTU21D;51606;45.000;38.612;2024-03-17T14:31:32;13.53;60.51
65040;HTU21D;51606;45.000;38.612;2024-03-17T14:34:02;13.43;60.64
65040;HTU21D;51606;45.000;38.612;2024-03-17T14:36:33;13.37;60.72
65040;HTU21D;51606;45.000;38.612;2024-03-17T14:39:00;13.32;60.75
65040;HTU21D;51606;45.000;38.612;2024-03-17T14:41:32;13.30;60.80
65040;HTU21D;51606;45.000;38.612;2024-03-17T14:43:58;13.24;60.80
65040;HTU21D;51606;45.000;38.612;2024-03-17T14:46:26;13.19;60.87
65040;HTU21D;51606;45.000;38.612;2024-03-17T14:48:53;13.07;60.97
65040;HTU21D;51606;45.000;38.612;2024-03-17T14:51:20;12.96;61.20
65040;HTU21D;51606;45.000;38.612;2024-03-17T14:53:49;12.87;61.31
65040;HTU21D;51606;45.000;38.612;2024-03-17T14:56:18;12.80;61.41
65040;HTU21D;51606;45.000;38.612;2024-03-17T14:58:45;12.76;61.47
65040;HTU21D;51606;45.000;38.612;2024-03-17T15:01:13;12.70;61.53
65040;HTU21D;51606;45.000;38.612;2024-03-17T15:03:39;12.65;61.60
65040;HTU21D;51606;45.000;38.612;2024-03-17T15:06:15;12.60;61.72
65040;HTU21D;51606;45.000;38.612;2024-03-17T15:08:44;12.53;61.76
65040;HTU21D;51606;45.000;38.612;2024-03-17T15:11:11;12.47;61.83
65040;HTU21D;51606;45.000;38.612;2024-03-17T15:13:37;12.42;61.92
65040;HTU21D;51606;45.000;38.612;2024-03-17T15:16:04;12.35;62.03
65040;HTU21D;51606;45.000;38.612;2024-03-17T15:18:31;12.28;62.13
65040;HTU21D;51606;45.000;38.612;2024-03-17T15:21:02;12.23;62.25
65040;HTU21D;51606;45.000;38.612;2024-03-17T15:23:31;12.18;62.28
65040;HTU21D;51606;45.000;38.612;2024-03-17T15:26:05;12.12;62.43
65040;HTU21D;51606;45.000;38.612;2024-03-17T15:28:47;12.07;62.53
65040;HTU21D;51606;45.000;38.612;2024-03-17T15:31:14;12.01;62.52
65040;HTU21D;51606;45.000;38.612;2024-03-17T15:37:12;11.91;62.66
65040;HTU21D;51606;45.000;38.612;2024-03-17T15:39:41;11.84;62.72
65040;HTU21D;51606;45.000;38.612;2024-03-17T15:42:09;11.79;62.83
65040;HTU21D;51606;45.000;38.612;2024-03-17T15:44:39;11.76;62.89
65040;HTU21D;51606;45.000;38.612;2024-03-17T15:47:05;11.73;62.92
65040;HTU21D;51606;45.000;38.612;2024-03-17T15:49:39;11.73;63.01
65040;HTU21D;51606;45.000;38.612;2024-03-17T15:52:13;11.69;62.98
65040;HTU21D;51606;45.000;38.612;2024-03-17T15:54:40;11.66;63.06
65040;HTU21D;51606;45.000;38.612;2024-03-17T15:57:06;11.60;63.14
65040;HTU21D;51606;45.000;38.612;2024-03-17T15:59:33;11.57;63.21
65040;HTU21D;51606;45.000;38.612;2024-03-17T16:02:01;11.53;63.27
65040;HTU21D;51606;45.000;38.612;2024-03-17T16:04:29;11.52;63.33
65040;HTU21D;51606;45.000;38.612;2024-03-17T16:06:55;11.48;63.39
65040;HTU21D;51606;45.000;38.612;2024-03-17T16:09:22;11.46;63.43
65040;HTU21D;51606;45.000;38.612;2024-03-17T16:11:48;11.45;63.47
65040;HTU21D;51606;45.000;38.612;2024-03-17T16:14:15;11.44;63.52
65040;HTU21D;51606;45.000;38.612;2024-03-17T16:16:42;11.41;63.56
65040;HTU21D;51606;45.000;38.612;2024-03-17T16:19:08;11.39;63.63
65040;HTU21D;51606;45.000;38.612;2024-03-17T16:21:35;11.37;63.69
65040;HTU21D;51606;45.000;38.612;2024-03-17T16:24:16;11.37;63.80
65040;HTU21D;51606;45.000;38.612;2024-03-17T16:26:43;11.33;63.76
65040;HTU21D;51606;45.000;38.612;2024-03-17T16:29:09;11.31;63.83
65040;HTU21D;51606;45.000;38.612;2024-03-17T16:31:37;11.29;63.91
65040;HTU21D;51606;45.000;38.612;2024-03-17T16:34:04;11.26;63.96
65040;HTU21D;51606;45.000;38.612;2024-03-17T16:36:34;11.23;64.02
65040;HTU21D;51606;45.000;38.612;2024-03-17T16:39:09;11.20;64.10
65040;HTU21D;51606;45.000;38.612;2024-03-17T16:41:37;11.18;64.14
65040;HTU21D;51606;45.000;38.612;2024-03-17T16:44:08;11.15;64.21
65040;HTU21D;51606;45.000;38.612;2024-03-17T16:49:07;11.07;64.37
65040;HTU21D;51606;45.000;38.612;2024-03-17T16:51:34;11.04;64.44
65040;HTU21D;51606;45.000;38.612;2024-03-17T16:54:01;11.03;64.50
65040;HTU21D;51606;45.000;38.612;2024-03-17T16:56:28;10.99;64.55
65040;HTU21D;51606;45.000;38.612;2024-03-17T16:58:55;11.00;64.59
65040;HTU21D;51606;45.000;38.612;2024-03-17T17:01:21;10.99;64.63
65040;HTU21D;51606;45.000;38.612;2024-03-17T17:03:51;10.99;64.66
65040;HTU21D;51606;45.000;38.612;2024-03-17T17:06:17;10.96;64.70
65040;HTU21D;51606;45.000;38.612;2024-03-17T17:08:44;10.96;64.76
65040;HTU21D;51606;45.000;38.612;2024-03-17T17:11:17;10.96;64.85
65040;HTU21D;51606;45.000;38.612;2024-03-17T17:13:45;10.94;64.85
65040;HTU21D;51606;45.000;38.612;2024-03-17T17:16:12;10.90;64.92
65040;HTU21D;51606;45.000;38.612;2024-03-17T17:21:19;10.89;65.02
65040;HTU21D;51606;45.000;38.612;2024-03-17T17:23:46;10.89;65.08
65040;HTU21D;51606;45.000;38.612;2024-03-17T17:26:20;10.88;65.17
65040;HTU21D;51606;45.000;38.612;2024-03-17T17:31:26;10.88;65.21
65040;HTU21D;51606;45.000;38.612;2024-03-17T17:33:53;10.87;65.27
65040;HTU21D;51606;45.000;38.612;2024-03-17T17:36:20;10.85;65.30
65040;HTU21D;51606;45.000;38.612;2024-03-17T17:38:47;10.83;65.37
65040;HTU21D;51606;45.000;38.612;2024-03-17T17:41:14;10.82;65.43
65040;HTU21D;51606;45.000;38.612;2024-03-17T17:46:09;10.78;65.56
65040;HTU21D;51606;45.000;38.612;2024-03-17T17:48:37;10.78;65.61
65040;HTU21D;51606;45.000;38.612;2024-03-17T17:51:08;10.75;65.70
65040;HTU21D;51606;45.000;38.612;2024-03-17T17:53:37;10.69;65.74
65040;HTU21D;51606;45.000;38.612;2024-03-17T17:56:05;10.64;65.85
65040;HTU21D;51606;45.000;38.612;2024-03-17T17:58:33;10.59;65.98
65040;HTU21D;51606;45.000;38.612;2024-03-17T18:01:01;10.50;66.10
65040;HTU21D;51606;45.000;38.612;2024-03-17T18:03:27;10.42;66.24
65040;HTU21D;51606;45.000;38.612;2024-03-17T18:05:54;10.35;66.40
65040;HTU21D;51606;45.000;38.612;2024-03-17T18:08:22;10.25;66.56
65040;HTU21D;51606;45.000;38.612;2024-03-17T18:10:49;10.18;66.67
65040;HTU21D;51606;45.000;38.612;2024-03-17T18:13:17;10.09;66.78
65040;HTU21D;51606;45.000;38.612;2024-03-17T18:15:44;10.03;66.86
65040;HTU21D;51606;45.000;38.612;2024-03-17T18:18:14;9.94;66.94
65040;HTU21D;51606;45.000;38.612;2024-03-17T18:20:40;9.85;67.04
65040;HTU21D;51606;45.000;38.612;2024-03-17T18:23:07;9.78;67.15
65040;HTU21D;51606;45.000;38.612;2024-03-17T18:25:34;9.68;67.27
65040;HTU21D;51606;45.000;38.612;2024-03-17T18:28:01;9.62;67.35
65040;HTU21D;51606;45.000;38.612;2024-03-17T18:30:28;9.55;67.39
65040;HTU21D;51606;45.000;38.612;2024-03-17T18:32:58;9.49;67.42
65040;HTU21D;51606;45.000;38.612;2024-03-17T18:35:25;9.41;67.50
65040;HTU21D;51606;45.000;38.612;2024-03-17T18:37:51;9.32;67.59
65040;HTU21D;51606;45.000;38.612;2024-03-17T18:40:19;9.20;67.69
65040;HTU21D;51606;45.000;38.612;2024-03-17T18:42:46;9.08;67.81
65040;HTU21D;51606;45.000;38.612;2024-03-17T18:45:22;8.97;67.91
65040;HTU21D;51606;45.000;38.612;2024-03-17T18:47:52;8.89;67.98
65040;HTU21D;51606;45.000;38.612;2024-03-17T18:50:18;8.81;68.01
65040;HTU21D;51606;45.000;38.612;2024-03-17T18:52:45;8.76;68.02
65040;HTU21D;51606;45.000;38.612;2024-03-17T18:55:16;8.72;68.02
65040;HTU21D;51606;45.000;38.612;2024-03-17T18:58:04;8.67;67.98
65040;HTU21D;51606;45.000;38.612;2024-03-17T19:00:31;8.62;67.94
65040;HTU21D;51606;45.000;38.612;2024-03-17T19:02:58;8.55;67.96
65040;HTU21D;51606;45.000;38.612;2024-03-17T19:05:27;8.49;67.98
65040;HTU21D;51606;45.000;38.612;2024-03-17T19:07:59;8.41;67.98
65040;HTU21D;51606;45.000;38.612;2024-03-17T19:10:28;8.31;68.03
65040;HTU21D;51606;45.000;38.612;2024-03-17T19:12:54;8.19;68.12
65040;HTU21D;51606;45.000;38.612;2024-03-17T19:15:21;8.05;68.26
65040;HTU21D;51606;45.000;38.612;2024-03-17T19:17:49;7.92;68.39
65040;HTU21D;51606;45.000;38.612;2024-03-17T19:20:17;7.79;68.48
65040;HTU21D;51606;45.000;38.612;2024-03-17T19:22:43;7.68;68.60
65040;HTU21D;51606;45.000;38.612;2024-03-17T19:25:10;7.56;68.68
65040;HTU21D;51606;45.000;38.612;2024-03-17T19:27:39;7.44;68.75
65040;HTU21D;51606;45.000;38.612;2024-03-17T19:30:06;7.32;68.84
65040;HTU21D;51606;45.000;38.612;2024-03-17T19:32:34;7.22;68.88
65040;HTU21D;51606;45.000;38.612;2024-03-17T19:35:01;7.12;68.94
65040;HTU21D;51606;45.000;38.612;2024-03-17T19:37:30;7.02;68.97
65040;HTU21D;51606;45.000;38.612;2024-03-17T19:39:56;6.94;69.00
65040;HTU21D;51606;45.000;38.612;2024-03-17T19:42:22;6.86;69.04
65040;HTU21D;51606;45.000;38.612;2024-03-17T19:44:49;6.80;69.07
65040;HTU21D;51606;45.000;38.612;2024-03-17T19:47:15;6.73;69.08
65040;HTU21D;51606;45.000;38.612;2024-03-17T19:49:44;6.67;69.09
65040;HTU21D;51606;45.000;38.612;2024-03-17T19:52:11;6.64;69.07
65040;HTU21D;51606;45.000;38.612;2024-03-17T19:54:38;6.61;69.01
65040;HTU21D;51606;45.000;38.612;2024-03-17T19:57:04;6.60;68.95
65040;HTU21D;51606;45.000;38.612;2024-03-17T19:59:32;6.59;68.86
65040;HTU21D;51606;45.000;38.612;2024-03-17T20:01:58;6.59;68.80
65040;HTU21D;51606;45.000;38.612;2024-03-17T20:04:25;6.56;68.76
65040;HTU21D;51606;45.000;38.612;2024-03-17T20:06:51;6.52;68.75
65040;HTU21D;51606;45.000;38.612;2024-03-17T20:09:17;6.48;68.78